Maersk Danang — A8PS5 — position and weather

sailwx.info

Track history (hours):
 
Tides and Currents Weather Stations Pressure Air Temp Water Temp Dewpoint Dewpoint Depression Visibility Wind Speed Wind Dir Waves Ship Positions

Maersk Danang

Last reported at 2016-Aug-23 16:24 UTC. Time now 2016-Aug-25 04:26 UTC.
Position N 25°43' W 079°25'.

Length 294 m; draft 11.4 m.

Type: Ship (hazmat cat A). MMSI: 636091595.

Date/timePositionNaut miles runAvg speedWind from/ knotsBaromVisibWave heightAir tempDewpointWater temp
2016-Aug-23 16:24N 25°43' W 079°25'1618.5
2016-Aug-23 15:33N 25°57' W 079°18'8 0.2
2016-Aug-22 06:03N 26°04' W 079°21'4 7.6
2016-Aug-22 05:31N 26°02' W 079°25'7 7.8
2016-Aug-22 04:33N 25°57' W 079°31'8 7.8
2016-Aug-22 03:33N 25°52' W 079°38'8 7.5
2016-Aug-22 02:31N 25°49' W 079°46'7 7.7
2016-Aug-22 01:33N 25°48' W 079°54'10 9.7
2016-Aug-22 00:33N 25°46' W 080°04'5 4.6
2016-Aug-21 23:33N 25°46' W 080°10'0 0.0
2016-Aug-21 22:33N 25°46' W 080°10'0 0.0
2016-Aug-21 21:33N 25°46' W 080°10'0 0.0
2016-Aug-21 20:33N 25°46' W 080°10'0 0.0
2016-Aug-21 19:33N 25°46' W 080°10'0 0.0
2016-Aug-21 18:33N 25°46' W 080°10'0 0.0
2016-Aug-21 17:30N 25°46' W 080°10'0 0.0
2016-Aug-21 16:33N 25°46' W 080°10'0 0.0
2016-Aug-21 15:33N 25°46' W 080°10'0 0.0
2016-Aug-21 14:33N 25°46' W 080°10'0 0.0
2016-Aug-21 13:33N 25°46' W 080°10'0 0.0
2016-Aug-21 12:33N 25°46' W 080°10'0 0.0
2016-Aug-21 11:32N 25°46' W 080°10'0 0.0
2016-Aug-21 10:32N 25°46' W 080°10'0 0.0
2016-Aug-21 09:32N 25°46' W 080°10'2 2.0
2016-Aug-21 08:33N 25°46' W 080°07'1010.0
2016-Aug-21 07:33N 25°43' W 079°57'9 9.0
2016-Aug-21 06:33N 25°35' W 079°54'1111.1
2016-Aug-21 05:33N 25°24' W 079°57'  
2016-Aug-16 18:15N 29°21' W 094°44'912.3
2016-Aug-16 17:32N 29°27' W 094°51'1111.4
2016-Aug-16 16:32N 29°37' W 094°58'2 1.4
2016-Aug-16 15:12N 29°37' W 095°00'0 0.0
2016-Aug-16 14:06N 29°37' W 095°00'0 0.0
2016-Aug-16 13:30N 29°37' W 095°00'0 0.0
2016-Aug-16 12:15N 29°37' W 095°00'0 0.0
2016-Aug-16 11:33N 29°37' W 095°00'0 0.0
2016-Aug-16 09:24N 29°37' W 095°00'0 0.0
2016-Aug-16 08:27N 29°37' W 095°00'0 0.0
2016-Aug-16 07:30N 29°37' W 095°00'0 0.0
2016-Aug-16 06:21N 29°37' W 095°00'0 0.0
2016-Aug-16 04:27N 29°37' W 095°00'0 0.0
2016-Aug-16 03:33N 29°37' W 095°00'0 0.0
2016-Aug-16 02:33N 29°37' W 095°00'0 0.0
2016-Aug-16 01:12N 29°37' W 095°00'0 0.0
2016-Aug-16 00:30N 29°37' W 095°00'0 0.0
2016-Aug-15 23:30N 29°37' W 095°00'0 0.0
2016-Aug-15 22:18N 29°37' W 095°00'0 0.0
2016-Aug-15 21:30N 29°37' W 095°00'0 0.0
2016-Aug-15 20:21N 29°37' W 095°00'0 0.0
2016-Aug-15 19:30N 29°37' W 095°00'0 0.0
2016-Aug-15 18:27N 29°37' W 095°00'0 0.0
2016-Aug-15 17:18N 29°37' W 095°00'0 0.0
2016-Aug-15 16:27N 29°37' W 095°00'0 0.0
2016-Aug-15 15:27N 29°37' W 095°00'0 0.0
2016-Aug-15 14:09N 29°37' W 095°00'0 0.0
2016-Aug-15 13:30N 29°37' W 095°00'0 0.0
2016-Aug-15 12:30N 29°37' W 095°00'0 0.0
2016-Aug-15 11:24N 29°37' W 095°00'0 0.0
2016-Aug-15 10:30N 29°37' W 095°00'0 0.0
2016-Aug-15 09:33N 29°37' W 095°00'0 0.0
2016-Aug-15 08:33N 29°37' W 095°00'0 0.0
2016-Aug-15 07:30N 29°37' W 095°00'0 0.0
2016-Aug-15 06:30N 29°37' W 095°00'0 0.0
2016-Aug-15 04:06N 29°37' W 095°00'0 0.0
2016-Aug-15 03:24N 29°37' W 095°00'0 0.0
2016-Aug-15 02:30N 29°37' W 095°00'0 0.0
2016-Aug-15 01:06N 29°37' W 095°00'0 0.0
2016-Aug-15 00:24N 29°37' W 095°00'0 0.0
2016-Aug-14 23:33N 29°37' W 095°00'0 0.2
2016-Aug-14 22:33N 29°37' W 095°01'3 3.0
2016-Aug-14 21:33N 29°36' W 094°57'1312.5
2016-Aug-14 20:31N 29°25' W 094°50'  
Track history (hours):
 
Tides and Currents Weather Stations Pressure Air Temp Water Temp Dewpoint Dewpoint Depression Visibility Wind Speed Wind Dir Waves Ship Positions

Maersk Danang

Last reported at 2016-Aug-23 16:24 UTC. Time now 2016-Aug-25 04:26 UTC.
Position N 25°43' W 079°25'.

Length 294 m; draft 11.4 m.

Type: Ship (hazmat cat A). MMSI: 636091595.

Date/timePositionNaut miles runAvg speedWind from/ knotsBaromVisibWave heightAir tempDewpointWater temp
2016-Aug-23 16:24N 25°43' W 079°25'1618.5
2016-Aug-23 15:33N 25°57' W 079°18'8 0.2
2016-Aug-22 06:03N 26°04' W 079°21'4 7.6
2016-Aug-22 05:31N 26°02' W 079°25'7 7.8
2016-Aug-22 04:33N 25°57' W 079°31'8 7.8
2016-Aug-22 03:33N 25°52' W 079°38'8 7.5
2016-Aug-22 02:31N 25°49' W 079°46'7 7.7
2016-Aug-22 01:33N 25°48' W 079°54'10 9.7
2016-Aug-22 00:33N 25°46' W 080°04'5 4.6
2016-Aug-21 23:33N 25°46' W 080°10'0 0.0
2016-Aug-21 22:33N 25°46' W 080°10'0 0.0
2016-Aug-21 21:33N 25°46' W 080°10'0 0.0
2016-Aug-21 20:33N 25°46' W 080°10'0 0.0
2016-Aug-21 19:33N 25°46' W 080°10'0 0.0
2016-Aug-21 18:33N 25°46' W 080°10'0 0.0
2016-Aug-21 17:30N 25°46' W 080°10'0 0.0
2016-Aug-21 16:33N 25°46' W 080°10'0 0.0
2016-Aug-21 15:33N 25°46' W 080°10'0 0.0
2016-Aug-21 14:33N 25°46' W 080°10'0 0.0
2016-Aug-21 13:33N 25°46' W 080°10'0 0.0
2016-Aug-21 12:33N 25°46' W 080°10'0 0.0
2016-Aug-21 11:32N 25°46' W 080°10'0 0.0
2016-Aug-21 10:32N 25°46' W 080°10'0 0.0
2016-Aug-21 09:32N 25°46' W 080°10'2 2.0
2016-Aug-21 08:33N 25°46' W 080°07'1010.0
2016-Aug-21 07:33N 25°43' W 079°57'9 9.0
2016-Aug-21 06:33N 25°35' W 079°54'1111.1
2016-Aug-21 05:33N 25°24' W 079°57'  
2016-Aug-16 18:15N 29°21' W 094°44'912.3
2016-Aug-16 17:32N 29°27' W 094°51'1111.4
2016-Aug-16 16:32N 29°37' W 094°58'2 1.4
2016-Aug-16 15:12N 29°37' W 095°00'0 0.0
2016-Aug-16 14:06N 29°37' W 095°00'0 0.0
2016-Aug-16 13:30N 29°37' W 095°00'0 0.0
2016-Aug-16 12:15N 29°37' W 095°00'0 0.0
2016-Aug-16 11:33N 29°37' W 095°00'0 0.0
2016-Aug-16 09:24N 29°37' W 095°00'0 0.0
2016-Aug-16 08:27N 29°37' W 095°00'0 0.0
2016-Aug-16 07:30N 29°37' W 095°00'0 0.0
2016-Aug-16 06:21N 29°37' W 095°00'0 0.0
2016-Aug-16 04:27N 29°37' W 095°00'0 0.0
2016-Aug-16 03:33N 29°37' W 095°00'0 0.0
2016-Aug-16 02:33N 29°37' W 095°00'0 0.0
2016-Aug-16 01:12N 29°37' W 095°00'0 0.0
2016-Aug-16 00:30N 29°37' W 095°00'0 0.0
2016-Aug-15 23:30N 29°37' W 095°00'0 0.0
2016-Aug-15 22:18N 29°37' W 095°00'0 0.0
2016-Aug-15 21:30N 29°37' W 095°00'0 0.0
2016-Aug-15 20:21N 29°37' W 095°00'0 0.0
2016-Aug-15 19:30N 29°37' W 095°00'0 0.0
2016-Aug-15 18:27N 29°37' W 095°00'0 0.0
2016-Aug-15 17:18N 29°37' W 095°00'0 0.0
2016-Aug-15 16:27N 29°37' W 095°00'0 0.0
2016-Aug-15 15:27N 29°37' W 095°00'0 0.0
2016-Aug-15 14:09N 29°37' W 095°00'0 0.0
2016-Aug-15 13:30N 29°37' W 095°00'0 0.0
2016-Aug-15 12:30N 29°37' W 095°00'0 0.0
2016-Aug-15 11:24N 29°37' W 095°00'0 0.0
2016-Aug-15 10:30N 29°37' W 095°00'0 0.0
2016-Aug-15 09:33N 29°37' W 095°00'0 0.0
2016-Aug-15 08:33N 29°37' W 095°00'0 0.0
2016-Aug-15 07:30N 29°37' W 095°00'0 0.0
2016-Aug-15 06:30N 29°37' W 095°00'0 0.0
2016-Aug-15 04:06N 29°37' W 095°00'0 0.0
2016-Aug-15 03:24N 29°37' W 095°00'0 0.0
2016-Aug-15 02:30N 29°37' W 095°00'0 0.0
2016-Aug-15 01:06N 29°37' W 095°00'0 0.0
2016-Aug-15 00:24N 29°37' W 095°00'0 0.0
2016-Aug-14 23:33N 29°37' W 095°00'0 0.2
2016-Aug-14 22:33N 29°37' W 095°01'3 3.0
2016-Aug-14 21:33N 29°36' W 094°57'1312.5
2016-Aug-14 20:31N 29°25' W 094°50'  

Dump ship's entire track history